Time;durP1;ratioP1;P1;durP2;ratioP2;P2;SDS_P1;SDS_P2;PMS_P1;PMS_P2;Temp;Humidity;BMP_temperature;BMP_pressure;BME280_temperature;BME280_humidity;BME280_pressure;Samples;Min_cycle;Max_cycle;Signal;HPM_P1;HPM_P2
2022/08/29 00:00:42;;;;;;;;;;;;;;;20.83;100.00;99738.97;3058283;19;1039;-50
2022/08/29 00:01:47;;;;;;;;;;;;;;;20.83;100.00;99753.38;3057890;19;1853;-49
2022/08/29 00:02:53;;;;;;;;;;;;;;;20.80;100.00;99745.59;3058438;19;1618;-50
2022/08/29 00:03:55;;;;;;;;;;;;;;;20.80;100.00;99752.88;3058096;19;1048;-50
2022/08/29 00:05:00;;;;;;;;;;;;;;;20.79;100.00;99751.19;3058232;19;1043;-50
2022/08/29 00:06:04;;;;;;;;;;;;;;;20.78;100.00;99749.50;3058323;19;907;-49
2022/08/29 00:07:13;;;;;;;;;;;;;;;20.75;100.00;99748.00;3058260;19;960;-50
2022/08/29 00:08:15;;;;;;;;;;;;;;;20.76;100.00;99747.00;3058099;19;972;-50
2022/08/29 00:09:20;;;;;;;;;;;;;;;20.75;100.00;99753.44;3058157;19;1653;-49
2022/08/29 00:10:24;;;;;;;;;;;;;;;20.75;100.00;99747.16;3057800;19;1011;-49
2022/08/29 00:11:26;;;;;;;;;;;;;;;20.74;100.00;99754.47;3058430;19;912;-49
2022/08/29 00:12:30;;;;;;;;;;;;;;;20.73;100.00;99751.91;3057700;19;956;-49
2022/08/29 00:13:33;;;;;;;;;;;;;;;20.73;100.00;99751.91;3057869;19;941;-50
2022/08/29 00:14:37;;;;;;;;;;;;;;;20.73;100.00;99751.91;3057556;19;1043;-50
2022/08/29 00:15:39;;;;;;;;;;;;;;;20.73;100.00;99751.91;3058033;19;965;-49
2022/08/29 00:16:48;;;;;;;;;;;;;;;20.73;100.00;99751.91;3058102;19;861;-50
2022/08/29 00:17:50;;;;;;;;;;;;;;;20.73;100.00;99751.91;3057881;19;857;-49
2022/08/29 00:18:54;;;;;;;;;;;;;;;20.74;100.00;99748.19;3057523;19;995;-49
2022/08/29 00:19:56;;;;;;;;;;;;;;;20.75;100.00;99747.16;3058168;19;936;-49
2022/08/29 00:21:01;;;;;;;;;;;;;;;20.76;100.00;99751.56;3057530;19;976;-50
2022/08/29 00:22:02;;;;;;;;;;;;;;;20.76;100.00;99747.00;3057345;19;1873;-49
2022/08/29 00:23:07;;;;;;;;;;;;;;;20.78;100.00;99749.50;3057753;19;1088;-50
2022/08/29 00:24:09;;;;;;;;;;;;;;;20.79;100.00;99748.47;3058068;19;944;-49
2022/08/29 00:25:14;;;;;;;;;;;;;;;20.78;100.00;99750.34;3057494;19;900;-49
2022/08/29 00:26:16;;;;;;;;;;;;;;;20.79;100.00;99752.03;3057822;19;980;-49
2022/08/29 00:27:20;;;;;;;;;;;;;;;20.80;100.00;99752.88;3057603;19;1667;-50
2022/08/29 00:28:22;;;;;;;;;;;;;;;20.81;100.00;99750.00;3057873;19;803;-50
2022/08/29 00:29:26;;;;;;;;;;;;;;;20.84;100.00;99754.22;3057628;19;1016;-50
2022/08/29 00:30:28;;;;;;;;;;;;;;;20.85;100.00;99750.50;3058085;19;862;-50
2022/08/29 00:31:33;;;;;;;;;;;;;;;20.81;100.00;99739.16;3056908;19;1271;-49
2022/08/29 00:32:35;;;;;;;;;;;;;;;20.89;100.00;99742.84;3057279;19;890;-49
2022/08/29 00:33:39;;;;;;;;;;;;;;;20.92;100.00;99745.19;3057518;19;1028;-49
2022/08/29 00:34:41;;;;;;;;;;;;;;;20.94;100.00;99744.00;3057910;19;1314;-50
2022/08/29 00:35:46;;;;;;;;;;;;;;;20.97;100.00;99742.78;3057411;19;1637;-50
2022/08/29 00:36:48;;;;;;;;;;;;;;;20.98;100.00;99739.91;3057832;19;949;-49
2022/08/29 00:37:53;;;;;;;;;;;;;;;21.00;100.00;99740.56;3057489;19;1016;-50
2022/08/29 00:38:55;;;;;;;;;;;;;;;21.03;100.00;99744.78;3057705;19;1271;-50
2022/08/29 00:40:01;;;;;;;;;;;;;;;21.04;100.00;99749.19;3057837;19;965;-49
2022/08/29 00:41:04;;;;;;;;;;;;;;;21.06;100.00;99747.13;3057012;19;1084;-49
2022/08/29 00:42:08;;;;;;;;;;;;;;;21.07;100.00;99749.66;3055799;19;1857;-49
2022/08/29 00:43:10;;;;;;;;;;;;;;;21.09;100.00;99747.63;3057475;19;976;-49
2022/08/29 00:44:15;;;;;;;;;;;;;;;21.12;100.00;99752.69;3057596;19;967;-50
2022/08/29 00:45:17;;;;;;;;;;;;;;;21.12;100.00;99739.13;3057696;19;881;-49
2022/08/29 00:46:41;;;;;;;;;;;;;;;21.13;100.00;99753.56;3058047;19;944;-50
2022/08/29 00:47:48;;;;;;;;;;;;;;;21.14;100.00;99755.22;3057531;19;890;-49
2022/08/29 00:48:57;;;;;;;;;;;;;;;21.12;100.00;99752.69;3056811;19;1000;-50
2022/08/29 00:49:58;;;;;;;;;;;;;;;21.13;100.00;99758.97;3056872;19;852;-50
2022/08/29 00:51:04;;;;;;;;;;;;;;;21.14;100.00;99752.50;3056671;19;1135;-49
2022/08/29 00:52:20;;;;;;;;;;;;;;;21.12;100.00;99758.13;3056615;19;921;-50
2022/08/29 00:53:25;;;;;;;;;;;;;;;21.12;100.00;99758.13;3056660;19;1024;-50
2022/08/29 00:54:30;;;;;;;;;;;;;;;21.12;100.00;99752.69;3056718;19;917;-49
2022/08/29 00:55:32;;;;;;;;;;;;;;;21.11;100.00;99759.16;3056731;19;873;-50
2022/08/29 00:56:38;;;;;;;;;;;;;;;21.09;100.00;99763.91;3056160;19;969;-50
2022/08/29 00:57:40;;;;;;;;;;;;;;;21.09;100.00;99761.19;3056308;19;979;-50
2022/08/29 00:58:55;;;;;;;;;;;;;;;21.08;100.00;99767.66;3056566;19;902;-50
2022/08/29 00:59:58;;;;;;;;;;;;;;;21.08;100.00;99762.22;3056633;19;881;-49
2022/08/29 01:01:02;;;;;;;;;;;;;;;21.06;100.00;99766.97;3056896;19;893;-50
2022/08/29 01:02:05;;;;;;;;;;;;;;;21.04;100.00;99763.59;3057322;19;862;-50
2022/08/29 01:03:09;;;;;;;;;;;;;;;21.03;100.00;99761.06;3056690;19;1862;-48
2022/08/29 01:04:11;;;;;;;;;;;;;;;21.03;100.00;99759.19;3056674;19;1168;-50
2022/08/29 01:05:19;;;;;;;;;;;;;;;21.03;100.00;99759.19;3056822;19;1262;-49
2022/08/29 01:06:21;;;;;;;;;;;;;;;21.02;100.00;99768.34;3057088;19;1011;-49
2022/08/29 01:07:27;;;;;;;;;;;;;;;21.00;100.00;99764.16;3056560;19;957;-50
2022/08/29 01:08:29;;;;;;;;;;;;;;;20.98;100.00;99756.19;3056608;19;992;-48
2022/08/29 01:09:33;;;;;;;;;;;;;;;20.97;100.00;99754.50;3056469;19;956;-50
2022/08/29 01:13:10;;;;;;;;;;;;;;;20.95;100.00;99761.13;3056459;19;956;-49
2022/08/29 01:14:14;;;;;;;;;;;;;;;20.96;100.00;99755.50;3056548;19;956;-50
2022/08/29 01:15:16;;;;;;;;;;;;;;;20.96;100.00;99763.66;3056336;19;1019;-50
2022/08/29 01:16:21;;;;;;;;;;;;;;;20.96;100.00;99757.38;3056175;19;880;-50
2022/08/29 01:17:32;;;;;;;;;;;;;;;20.95;100.00;99752.97;3056465;19;924;-49
2022/08/29 01:18:35;;;;;;;;;;;;;;;20.93;100.00;99764.00;3056160;19;1051;-50
2022/08/29 01:19:57;;;;;;;;;;;;;;;20.93;100.00;99761.28;3056498;19;2045;-49
2022/08/29 01:21:17;;;;;;;;;;;;;;;20.92;100.00;99758.75;3056299;19;980;-49
2022/08/29 01:22:40;;;;;;;;;;;;;;;20.90;100.00;99753.50;3057025;19;865;-49
2022/08/29 01:24:00;;;;;;;;;;;;;;;20.89;100.00;99757.22;3057385;19;987;-50
2022/08/29 01:25:06;;;;;;;;;;;;;;;20.89;100.00;99751.81;3056962;19;988;-50
2022/08/29 01:26:09;;;;;;;;;;;;;;;20.89;100.00;99754.53;3057114;19;991;-50
2022/08/29 01:27:13;;;;;;;;;;;;;;;20.90;100.00;99758.94;3055782;19;944;-49
2022/08/29 01:28:29;;;;;;;;;;;;;;;20.91;100.00;99752.47;3056370;19;853;-49
2022/08/29 01:29:30;;;;;;;;;;;;;;;20.92;100.00;99751.47;3054410;19;1023;-49
2022/08/29 01:30:35;;;;;;;;;;;;;;;20.92;100.00;99754.16;3056242;19;880;-49
2022/08/29 01:31:41;;;;;;;;;;;;;;;20.96;100.00;99757.38;3056805;19;952;-51
2022/08/29 01:33:01;;;;;;;;;;;;;;;20.97;100.00;99753.66;3056999;19;912;-49
2022/08/29 01:34:04;;;;;;;;;;;;;;;20.98;100.00;99761.59;3057085;19;936;-50
2022/08/29 01:35:10;;;;;;;;;;;;;;;20.98;100.00;99752.63;3056822;19;1150;-50
2022/08/29 01:36:12;;;;;;;;;;;;;;;20.99;100.00;99759.75;3056943;19;992;-49
2022/08/29 01:37:17;;;;;;;;;;;;;;;20.99;100.00;99763.31;3055771;19;952;-49
2022/08/29 01:38:26;;;;;;;;;;;;;;;21.02;100.00;99767.50;3055981;19;1007;-49
2022/08/29 01:39:32;;;;;;;;;;;;;;;21.02;100.00;99762.06;3055893;19;1094;-49
2022/08/29 01:40:34;;;;;;;;;;;;;;;21.03;100.00;99767.31;3056087;19;889;-50
2022/08/29 01:41:40;;;;;;;;;;;;;;;21.04;100.00;99763.59;3056184;19;1227;-49
2022/08/29 01:42:42;;;;;;;;;;;;;;;21.06;100.00;99768.84;3057079;19;965;-49
2022/08/29 01:43:48;;;;;;;;;;;;;;;21.07;100.00;99771.38;3055649;19;1834;-50
2022/08/29 01:44:51;;;;;;;;;;;;;;;21.07;100.00;99771.38;3056977;19;912;-49
2022/08/29 01:45:56;;;;;;;;;;;;;;;21.07;100.00;99774.09;3056539;19;964;-49
2022/08/29 01:46:58;;;;;;;;;;;;;;;21.08;100.00;99775.78;3057205;19;873;-50
2022/08/29 01:48:06;;;;;;;;;;;;;;;21.09;100.00;99782.91;3056765;19;1166;-49
2022/08/29 01:49:09;;;;;;;;;;;;;;;21.09;100.00;99780.19;3057132;19;1007;-50
2022/08/29 01:50:15;;;;;;;;;;;;;;;21.12;100.00;99779.84;3056423;19;1774;-50
2022/08/29 01:51:17;;;;;;;;;;;;;;;21.13;100.00;99781.50;3057230;19;917;-50
2022/08/29 01:52:21;;;;;;;;;;;;;;;21.13;100.00;99786.91;3056400;19;1646;-49
2022/08/29 01:53:23;;;;;;;;;;;;;;;21.13;100.00;99781.50;3057289;19;960;-49
2022/08/29 01:54:28;;;;;;;;;;;;;;;21.15;100.00;99778.59;3056215;19;957;-50
2022/08/29 01:55:30;;;;;;;;;;;;;;;21.10;100.00;99776.44;3056883;19;1755;-49
2022/08/29 01:56:36;;;;;;;;;;;;;;;21.15;100.00;99784.88;3056676;19;948;-49
2022/08/29 01:57:39;;;;;;;;;;;;;;;21.15;100.00;99793.03;3056785;19;968;-49
2022/08/29 01:58:46;;;;;;;;;;;;;;;21.17;100.00;99785.56;3056796;19;987;-50
2022/08/29 01:59:48;;;;;;;;;;;;;;;21.16;100.00;99794.72;3057023;19;897;-50
2022/08/29 02:00:53;;;;;;;;;;;;;;;21.16;100.00;99792.00;3056370;19;976;-49
2022/08/29 02:01:57;;;;;;;;;;;;;;;21.14;100.00;99799.47;3056213;19;964;-50
2022/08/29 02:03:02;;;;;;;;;;;;;;;21.14;100.00;99804.03;3056013;19;976;-50
2022/08/29 02:04:04;;;;;;;;;;;;;;;21.15;100.00;99800.31;3056026;19;1020;-49
2022/08/29 02:05:09;;;;;;;;;;;;;;;21.16;100.00;99797.44;3055400;19;1789;-50
2022/08/29 02:06:12;;;;;;;;;;;;;;;21.16;100.00;99797.44;3057118;19;933;-48
2022/08/29 02:07:20;;;;;;;;;;;;;;;21.18;100.00;99798.13;3056762;19;1593;-50
2022/08/29 02:08:22;;;;;;;;;;;;;;;21.19;100.00;99802.53;3055793;19;937;-50
2022/08/29 02:09:27;;;;;;;;;;;;;;;21.19;100.00;99802.53;3055473;19;948;-50
2022/08/29 02:10:29;;;;;;;;;;;;;;;21.20;100.00;99798.81;3056675;19;1075;-49
2022/08/29 02:11:34;;;;;;;;;;;;;;;21.21;100.00;99794.22;3056359;19;1008;-50
2022/08/29 02:12:35;;;;;;;;;;;;;;;21.23;100.00;99799.47;3057163;19;888;-50
2022/08/29 02:13:41;;;;;;;;;;;;;;;21.24;100.00;99798.44;3056263;19;897;-50
2022/08/29 02:14:43;;;;;;;;;;;;;;;21.24;100.00;99803.88;3056719;19;865;-50
2022/08/29 02:15:47;;;;;;;;;;;;;;;21.25;100.00;99794.72;3056797;19;905;-50
2022/08/29 02:16:49;;;;;;;;;;;;;;;21.25;100.00;99803.69;3056678;19;893;-50
2022/08/29 02:17:54;;;;;;;;;;;;;;;21.25;100.00;99800.13;3056382;19;1699;-50
2022/08/29 02:18:56;;;;;;;;;;;;;;;21.26;100.00;99799.09;3056767;19;861;-50
2022/08/29 02:20:01;;;;;;;;;;;;;;;21.27;100.00;99814.34;3056346;19;926;-50
2022/08/29 02:21:03;;;;;;;;;;;;;;;21.26;100.00;99807.22;3056431;19;929;-49
2022/08/29 02:22:08;;;;;;;;;;;;;;;21.26;100.00;99813.50;3056376;19;869;-49
2022/08/29 02:23:10;;;;;;;;;;;;;;;21.26;100.00;99809.94;3056563;19;904;-49
2022/08/29 02:24:33;;;;;;;;;;;;;;;21.25;100.00;99805.56;3056416;19;952;-49
2022/08/29 02:25:41;;;;;;;;;;;;;;;21.25;100.00;99813.72;3056480;19;1021;-50
2022/08/29 02:26:46;;;;;;;;;;;;;;;21.24;100.00;99814.72;3056898;19;892;-50
2022/08/29 02:27:51;;;;;;;;;;;;;;;21.24;100.00;99822.88;3056148;19;909;-50
2022/08/29 02:28:56;;;;;;;;;;;;;;;21.20;100.00;99820.50;3056518;19;1101;-49
2022/08/29 02:29:58;;;;;;;;;;;;;;;21.20;100.00;99820.50;3056293;19;892;-50
2022/08/29 02:31:03;;;;;;;;;;;;;;;21.21;100.00;99821.34;3056486;19;977;-49
2022/08/29 02:32:10;;;;;;;;;;;;;;;21.19;100.00;99818.81;3056441;19;984;-50
2022/08/29 02:33:16;;;;;;;;;;;;;;;21.20;100.00;99820.50;3056782;19;960;-49
2022/08/29 02:34:19;;;;;;;;;;;;;;;21.20;100.00;99820.50;3056390;19;928;-50
2022/08/29 02:35:24;;;;;;;;;;;;;;;21.21;100.00;99821.34;3056511;19;1286;-49
2022/08/29 02:36:26;;;;;;;;;;;;;;;21.22;100.00;99822.19;3056404;19;967;-48
2022/08/29 02:37:30;;;;;;;;;;;;;;;21.23;100.00;99823.91;3056238;19;866;-50
2022/08/29 02:38:33;;;;;;;;;;;;;;;21.22;100.00;99822.19;3056042;19;898;-49
2022/08/29 02:39:37;;;;;;;;;;;;;;;21.23;100.00;99823.91;3055394;19;988;-50
2022/08/29 02:40:39;;;;;;;;;;;;;;;21.24;100.00;99822.88;3055314;19;953;-50
2022/08/29 02:41:44;;;;;;;;;;;;;;;21.23;100.00;99821.19;3056453;19;1146;-49
2022/08/29 02:42:46;;;;;;;;;;;;;;;21.25;100.00;99824.56;3059747;19;857;-50
2022/08/29 02:43:50;;;;;;;;;;;;;;;21.24;100.00;99825.59;3058915;19;1850;-50
2022/08/29 02:44:52;;;;;;;;;;;;;;;21.25;100.00;99822.69;3059234;19;1053;-49
2022/08/29 02:45:56;;;;;;;;;;;;;;;21.24;100.00;99822.88;3059205;19;1008;-49
2022/08/29 02:46:58;;;;;;;;;;;;;;;21.25;100.00;99832.72;3059361;19;928;-50
2022/08/29 02:48:03;;;;;;;;;;;;;;;21.26;100.00;99828.94;3059068;19;1585;-49
2022/08/29 02:50:35;;;;;;;;;;;;;;;21.29;100.00;99828.59;3056167;19;1474;-51
2022/08/29 02:51:36;;;;;;;;;;;;;;;21.29;100.00;99826.72;3058992;19;832;-49
2022/08/29 02:52:41;;;;;;;;;;;;;;;21.29;100.00;99820.44;3059432;19;905;-48
2022/08/29 02:53:43;;;;;;;;;;;;;;;21.26;100.00;99812.66;3059213;19;943;-50
2022/08/29 02:54:49;;;;;;;;;;;;;;;21.30;100.00;99827.56;3059340;19;924;-49
2022/08/29 02:55:50;;;;;;;;;;;;;;;21.29;100.00;99820.44;3059069;19;923;-50
2022/08/29 02:56:55;;;;;;;;;;;;;;;21.28;100.00;99816.03;3058159;19;956;-49
2022/08/29 02:57:57;;;;;;;;;;;;;;;21.30;100.00;99819.44;3058433;19;884;-50
2022/08/29 02:59:02;;;;;;;;;;;;;;;21.30;100.00;99822.13;3058965;19;1750;-49
2022/08/29 03:00:06;;;;;;;;;;;;;;;21.31;100.00;99827.41;3058330;19;1233;-50
2022/08/29 03:01:11;;;;;;;;;;;;;;;21.31;100.00;99816.53;3058191;19;885;-49
2022/08/29 03:02:12;;;;;;;;;;;;;;;21.35;100.00;99822.47;3059217;19;888;-50
2022/08/29 03:03:17;;;;;;;;;;;;;;;21.35;100.00;99822.47;3058939;19;961;-49
2022/08/29 03:04:19;;;;;;;;;;;;;;;21.36;100.00;99824.16;3057772;19;1857;-50
2022/08/29 03:05:26;;;;;;;;;;;;;;;21.37;100.00;99817.69;3058313;19;911;-50
2022/08/29 03:06:28;;;;;;;;;;;;;;;21.37;100.00;99823.97;3059349;19;924;-50
2022/08/29 03:07:32;;;;;;;;;;;;;;;21.37;100.00;99823.97;3058764;19;896;-50
2022/08/29 03:08:34;;;;;;;;;;;;;;;21.36;100.00;99825.00;3059259;19;835;-49
2022/08/29 03:09:39;;;;;;;;;;;;;;;21.39;100.00;99818.34;3058904;19;908;-49
2022/08/29 03:10:41;;;;;;;;;;;;;;;21.41;100.00;99821.72;3059047;19;1333;-48
2022/08/29 03:11:46;;;;;;;;;;;;;;;21.42;100.00;99818.00;3057736;19;870;-50
2022/08/29 03:12:48;;;;;;;;;;;;;;;21.43;100.00;99817.81;3058117;19;1275;-50
2022/08/29 03:13:52;;;;;;;;;;;;;;;21.44;100.00;99816.78;3058754;19;979;-50
2022/08/29 03:14:58;;;;;;;;;;;;;;;21.46;100.00;99819.31;3059017;19;916;-50
2022/08/29 03:16:03;;;;;;;;;;;;;;;21.47;100.00;99818.31;3058601;19;1055;-50
2022/08/29 03:17:05;;;;;;;;;;;;;;;21.46;100.00;99825.59;3058792;19;933;-49
2022/08/29 03:18:10;;;;;;;;;;;;;;;21.46;100.00;99822.88;3058867;19;1618;-50
2022/08/29 03:19:12;;;;;;;;;;;;;;;21.47;100.00;99821.03;3058998;19;1007;-50
2022/08/29 03:20:17;;;;;;;;;;;;;;;21.47;100.00;99821.88;3058936;19;913;-50
2022/08/29 03:21:19;;;;;;;;;;;;;;;21.46;100.00;99825.59;3058993;19;1093;-50
2022/08/29 03:22:24;;;;;;;;;;;;;;;21.47;100.00;99830.00;3058680;19;1753;-50
2022/08/29 03:23:26;;;;;;;;;;;;;;;21.49;100.00;99837.97;3058991;19;951;-50
2022/08/29 03:24:31;;;;;;;;;;;;;;;21.48;100.00;99836.28;3058459;19;1872;-50
2022/08/29 03:25:33;;;;;;;;;;;;;;;21.50;100.00;99836.94;3058807;19;892;-50
2022/08/29 03:26:39;;;;;;;;;;;;;;;21.49;100.00;99840.69;3058601;19;1104;-49
2022/08/29 03:27:41;;;;;;;;;;;;;;;21.49;100.00;99837.97;3059067;19;924;-50
2022/08/29 03:28:46;;;;;;;;;;;;;;;21.48;100.00;99839.00;3058503;19;1011;-49
2022/08/29 03:29:47;;;;;;;;;;;;;;;21.48;100.00;99844.44;3059046;19;857;-49
2022/08/29 03:30:52;;;;;;;;;;;;;;;21.47;100.00;99853.59;3058562;19;968;-49
2022/08/29 03:31:57;;;;;;;;;;;;;;;21.44;100.00;99845.81;3058871;19;940;-50
2022/08/29 03:33:03;;;;;;;;;;;;;;;21.44;100.00;99843.94;3058465;19;1334;-49
2022/08/29 03:34:09;;;;;;;;;;;;;;;21.45;100.00;99847.50;3058808;19;960;-50
2022/08/29 03:35:14;;;;;;;;;;;;;;;21.43;100.00;99847.66;3058564;19;1695;-50
2022/08/29 03:36:18;;;;;;;;;;;;;;;21.42;100.00;99845.13;3058831;19;1226;-48
2022/08/29 03:37:20;;;;;;;;;;;;;;;21.41;100.00;99854.31;3058497;19;934;-49
2022/08/29 03:38:27;;;;;;;;;;;;;;;21.41;100.00;99854.31;3058859;19;1015;-49
2022/08/29 03:39:29;;;;;;;;;;;;;;;21.42;100.00;99853.28;3058459;19;1015;-49
2022/08/29 03:40:34;;;;;;;;;;;;;;;21.32;100.00;99855.38;3057910;19;987;-50
2022/08/29 03:41:36;;;;;;;;;;;;;;;21.34;100.00;99853.34;3057546;19;944;-49
2022/08/29 03:42:41;;;;;;;;;;;;;;;21.34;100.00;99853.34;3058863;19;882;-49
2022/08/29 03:43:43;;;;;;;;;;;;;;;21.30;100.00;99852.00;3058483;19;888;-50
2022/08/29 03:44:47;;;;;;;;;;;;;;;21.33;100.00;99857.06;3058176;19;1842;-49
2022/08/29 03:45:50;;;;;;;;;;;;;;;21.29;100.00;99863.88;3058484;19;873;-50
2022/08/29 03:46:55;;;;;;;;;;;;;;;21.32;100.00;99855.38;3058602;19;1638;-50
2022/08/29 03:47:57;;;;;;;;;;;;;;;21.34;100.00;99856.06;3058634;19;944;-49
2022/08/29 03:49:02;;;;;;;;;;;;;;;21.30;100.00;99858.28;3058360;19;1675;-50
2022/08/29 03:50:04;;;;;;;;;;;;;;;21.26;100.00;99856.09;3057279;19;1758;-50
2022/08/29 03:51:08;;;;;;;;;;;;;;;21.22;100.00;99855.63;3058232;19;1039;-49
2022/08/29 03:52:10;;;;;;;;;;;;;;;21.24;100.00;99855.44;3057966;19;1024;-49
2022/08/29 03:53:14;;;;;;;;;;;;;;;21.26;100.00;99861.50;3056878;19;940;-50
2022/08/29 03:54:16;;;;;;;;;;;;;;;21.28;100.00;99860.31;3057500;19;1052;-50
2022/08/29 03:55:21;;;;;;;;;;;;;;;21.26;100.00;99853.38;3058000;19;1262;-50
2022/08/29 03:56:23;;;;;;;;;;;;;;;21.27;100.00;99863.19;3058357;19;956;-50
2022/08/29 03:57:31;;;;;;;;;;;;;;;21.27;100.00;99864.06;3058362;19;1063;-50
2022/08/29 03:58:36;;;;;;;;;;;;;;;21.23;100.00;99865.44;3058366;19;929;-49
2022/08/29 03:59:38;;;;;;;;;;;;;;;21.25;100.00;99868.84;3058273;19;888;-50
2022/08/29 04:00:45;;;;;;;;;;;;;;;21.27;100.00;99876.78;3058987;19;1739;-51
2022/08/29 04:01:47;;;;;;;;;;;;;;;21.26;100.00;99873.22;3058381;19;909;-49
2022/08/29 04:02:53;;;;;;;;;;;;;;;21.26;100.00;99870.50;3058529;19;873;-49
2022/08/29 04:03:56;;;;;;;;;;;;;;;21.25;100.00;99870.69;3058177;19;742;-50
2022/08/29 04:05:09;;;;;;;;;;;;;;;21.24;100.00;99874.44;3058613;19;1850;-50
2022/08/29 04:06:11;;;;;;;;;;;;;;;21.25;100.00;99873.41;3059171;19;1715;-49
2022/08/29 04:07:16;;;;;;;;;;;;;;;21.22;100.00;99879.19;3058588;19;890;-50
2022/08/29 04:08:18;;;;;;;;;;;;;;;21.22;100.00;99880.03;3058172;19;952;-50
2022/08/29 04:09:22;;;;;;;;;;;;;;;21.22;100.00;99881.91;3058460;19;992;-50
2022/08/29 04:10:34;;;;;;;;;;;;;;;21.19;100.00;99886.66;3058155;19;1256;-49
2022/08/29 04:11:36;;;;;;;;;;;;;;;21.19;100.00;99880.38;3058520;19;924;-50
2022/08/29 04:12:40;;;;;;;;;;;;;;;21.18;100.00;99895.81;3058218;19;915;-50
2022/08/29 04:13:42;;;;;;;;;;;;;;;21.11;100.00;99888.53;3058488;19;949;-49
2022/08/29 04:14:47;;;;;;;;;;;;;;;21.09;100.00;99894.16;3057985;19;1371;-49
2022/08/29 04:15:52;;;;;;;;;;;;;;;21.01;100.00;99902.28;3057261;19;1284;-48
2022/08/29 04:16:54;;;;;;;;;;;;;;;21.02;100.00;99898.56;3057998;19;857;-50
2022/08/29 04:17:59;;;;;;;;;;;;;;;21.06;100.00;99902.63;3058751;19;1456;-50
2022/08/29 04:19:01;;;;;;;;;;;;;;;20.97;100.00;99900.13;3057785;19;862;-51
2022/08/29 04:20:07;;;;;;;;;;;;;;;20.85;100.00;99896.94;3058338;19;861;-50
2022/08/29 04:21:09;;;;;;;;;;;;;;;20.91;100.00;99901.66;3057665;19;1007;-51
2022/08/29 04:22:14;;;;;;;;;;;;;;;20.89;100.00;99900.97;3058490;19;1221;-50
2022/08/29 04:23:15;;;;;;;;;;;;;;;20.84;100.00;99901.53;3057800;19;957;-50
2022/08/29 04:24:20;;;;;;;;;;;;;;;20.78;100.00;99902.22;3058116;19;917;-49
2022/08/29 04:25:23;;;;;;;;;;;;;;;20.87;100.00;99905.75;3057554;19;1865;-51
2022/08/29 04:26:28;;;;;;;;;;;;;;;20.92;100.00;99918.78;3056083;19;1658;-52
2022/08/29 04:27:37;;;;;;;;;;;;;;;20.89;100.00;99909.13;3058436;19;1416;-50
2022/08/29 04:28:42;;;;;;;;;;;;;;;20.87;100.00;99922.03;3054969;19;1659;-51
2022/08/29 04:29:47;;;;;;;;;;;;;;;20.91;100.00;99927.94;3057280;19;1585;-51
2022/08/29 04:30:52;;;;;;;;;;;;;;;20.89;100.00;99919.16;3057885;19;992;-49
2022/08/29 04:31:54;;;;;;;;;;;;;;;20.94;100.00;99923.03;3058007;19;873;-51
2022/08/29 04:32:59;;;;;;;;;;;;;;;20.88;100.00;99931.88;3057642;19;1036;-50
2022/08/29 04:34:01;;;;;;;;;;;;;;;20.95;100.00;99929.28;3057661;19;1807;-50
2022/08/29 04:35:06;;;;;;;;;;;;;;;20.96;100.00;99931.00;3057125;19;838;-50
2022/08/29 04:36:08;;;;;;;;;;;;;;;20.94;100.00;99938.44;3057885;19;845;-49
2022/08/29 04:37:18;;;;;;;;;;;;;;;20.92;100.00;99945.91;3057434;19;1136;-51
2022/08/29 04:38:23;;;;;;;;;;;;;;;20.96;100.00;99948.13;3057916;19;889;-49
2022/08/29 04:39:24;;;;;;;;;;;;;;;20.96;100.00;99956.25;3057813;19;908;-50
2022/08/29 04:40:29;;;;;;;;;;;;;;;20.88;100.00;99961.72;3058030;19;897;-50
2022/08/29 04:41:31;;;;;;;;;;;;;;;20.85;100.00;99967.47;3057692;19;893;-51
2022/08/29 04:42:37;;;;;;;;;;;;;;;20.82;100.00;99959.69;3057775;19;1092;-51
2022/08/29 04:43:42;;;;;;;;;;;;;;;20.81;100.00;99956.13;3057465;19;1367;-49
2022/08/29 04:44:46;;;;;;;;;;;;;;;20.84;100.00;99963.06;3056890;19;1648;-50
2022/08/29 04:45:57;;;;;;;;;;;;;;;20.86;100.00;99969.16;3056253;19;1866;-50
2022/08/29 04:46:59;;;;;;;;;;;;;;;20.81;100.00;99971.53;3057872;19;858;-51
2022/08/29 04:48:04;;;;;;;;;;;;;;;20.75;100.00;99966.81;3057325;19;736;-51
2022/08/29 04:49:06;;;;;;;;;;;;;;;20.72;100.00;99975.28;3057843;19;971;-49
2022/08/29 04:50:12;;;;;;;;;;;;;;;20.68;100.00;99971.22;3055892;19;1773;-50
2022/08/29 04:51:14;;;;;;;;;;;;;;;20.71;100.00;99976.31;3058970;19;1051;-50
2022/08/29 04:52:19;;;;;;;;;;;;;;;20.52;100.00;99971.25;3057412;19;944;-50
2022/08/29 04:53:21;;;;;;;;;;;;;;;20.48;100.00;99966.19;3057988;19;1003;-48
2022/08/29 04:54:26;;;;;;;;;;;;;;;20.44;100.00;99958.53;3057229;19;956;-49
2022/08/29 04:55:30;;;;;;;;;;;;;;;20.43;100.00;99962.25;3057560;19;947;-51
2022/08/29 04:56:32;;;;;;;;;;;;;;;20.50;100.00;99966.00;3057576;19;1031;-50
2022/08/29 04:57:38;;;;;;;;;;;;;;;20.50;100.00;99968.72;3057448;19;992;-51
2022/08/29 04:58:40;;;;;;;;;;;;;;;20.53;100.00;99962.13;3057519;19;1007;-51
2022/08/29 04:59:47;;;;;;;;;;;;;;;20.60;100.00;99963.09;3057731;19;975;-49
2022/08/29 05:00:51;;;;;;;;;;;;;;;20.60;100.00;99971.25;3057517;19;983;-50
2022/08/29 05:01:56;;;;;;;;;;;;;;;20.63;100.00;99965.50;3057453;19;1039;-50
2022/08/29 05:02:58;;;;;;;;;;;;;;;20.61;100.00;99964.81;3057363;19;995;-50
2022/08/29 05:04:04;;;;;;;;;;;;;;;20.60;100.00;99968.53;3056065;19;956;-49
2022/08/29 05:05:06;;;;;;;;;;;;;;;20.55;100.00;99963.63;3056599;19;1368;-50
2022/08/29 05:06:11;;;;;;;;;;;;;;;20.63;100.00;99962.78;3057075;19;1864;-51
2022/08/29 05:07:13;;;;;;;;;;;;;;;20.61;100.00;99970.22;3057452;19;1019;-49
2022/08/29 05:08:19;;;;;;;;;;;;;;;20.68;100.00;99968.50;3057330;19;1771;-50
2022/08/29 05:09:21;;;;;;;;;;;;;;;20.74;100.00;99984.09;3057649;19;932;-50
2022/08/29 05:10:26;;;;;;;;;;;;;;;20.77;100.00;99972.94;3057201;19;916;-51
2022/08/29 05:11:28;;;;;;;;;;;;;;;20.78;100.00;99983.56;3057601;19;1014;-51
2022/08/29 05:12:33;;;;;;;;;;;;;;;20.79;100.00;99979.00;3057265;19;944;-51
2022/08/29 05:13:35;;;;;;;;;;;;;;;20.81;100.00;99982.38;3057584;19;955;-49
2022/08/29 05:14:40;;;;;;;;;;;;;;;20.79;100.00;99987.13;3057378;19;939;-50
2022/08/29 05:15:41;;;;;;;;;;;;;;;20.84;100.00;99998.31;3057211;19;1096;-51
2022/08/29 05:16:47;;;;;;;;;;;;;;;20.87;100.00;99992.56;3057063;19;945;-50
2022/08/29 05:17:49;;;;;;;;;;;;;;;20.90;100.00;99996.78;3057484;19;979;-51
2022/08/29 05:18:54;;;;;;;;;;;;;;;20.89;100.00;100001.34;3057483;19;865;-50
2022/08/29 05:19:55;;;;;;;;;;;;;;;20.88;100.00;99998.84;3057130;19;949;-50
2022/08/29 05:21:00;;;;;;;;;;;;;;;20.90;100.00;100003.03;3057270;19;959;-50
2022/08/29 05:22:02;;;;;;;;;;;;;;;20.87;100.00;100008.84;3057476;19;862;-50
2022/08/29 05:23:06;;;;;;;;;;;;;;;20.91;100.00;100010.16;3057216;19;905;-51
2022/08/29 05:24:09;;;;;;;;;;;;;;;20.97;100.00;100014.91;3057321;19;1042;-50
2022/08/29 05:25:14;;;;;;;;;;;;;;;20.98;100.00;100008.47;3057244;19;900;-51
2022/08/29 05:26:19;;;;;;;;;;;;;;;20.95;100.00;100013.38;3056779;19;1867;-49
2022/08/29 05:27:23;;;;;;;;;;;;;;;20.96;100.00;100012.38;3057156;19;924;-50
2022/08/29 05:28:25;;;;;;;;;;;;;;;20.96;100.00;100013.22;3057308;19;948;-49
2022/08/29 05:29:30;;;;;;;;;;;;;;;20.95;100.00;100016.09;3057185;19;940;-49
2022/08/29 05:30:32;;;;;;;;;;;;;;;20.93;100.00;100018.97;3057465;19;898;-51
2022/08/29 05:31:39;;;;;;;;;;;;;;;20.93;100.00;100013.56;3057056;19;1658;-49
2022/08/29 05:32:41;;;;;;;;;;;;;;;20.92;100.00;100022.72;3057361;19;886;-49
2022/08/29 05:33:46;;;;;;;;;;;;;;;20.94;100.00;100014.41;3057208;19;900;-50
2022/08/29 05:34:48;;;;;;;;;;;;;;;20.95;100.00;100022.38;3057021;19;976;-50
2022/08/29 05:35:52;;;;;;;;;;;;;;;20.93;100.00;100015.41;3056771;19;1577;-51
2022/08/29 05:36:54;;;;;;;;;;;;;;;20.92;100.00;100017.28;3057040;19;1012;-50
2022/08/29 05:37:58;;;;;;;;;;;;;;;20.89;100.00;100017.63;3057016;19;909;-49
2022/08/29 05:39:00;;;;;;;;;;;;;;;20.89;100.00;100017.63;3056984;19;1012;-49
2022/08/29 05:40:06;;;;;;;;;;;;;;;20.90;100.00;100013.03;3056972;19;968;-49
2022/08/29 05:41:07;;;;;;;;;;;;;;;20.92;100.00;100017.28;3056999;19;1203;-50
2022/08/29 05:42:12;;;;;;;;;;;;;;;20.92;100.00;100022.72;3057066;19;857;-50